TimeCEST,TemperatureF,Dew PointF,Humidity,Sea Level PressureIn,VisibilityMPH,Wind Direction,Wind SpeedMPH,Gust SpeedMPH,PrecipitationIn,Events,Conditions,WindDirDegrees,DateUTC
12:00 AM,55.4,46.4,72,29.95,6.2,WSW,12.7,-,N/A,,Partly Cloudy,240,2012-09-27 22:00:00
12:30 AM,57.2,46.4,67,29.95,6.2,SW,16.1,-,N/A,Rain,Light Rain Showers,230,2012-09-27 22:30:00
12:42 AM,53.6,48.2,82,29.98,6.2,SW,17.3,-,N/A,,Scattered Clouds,230,2012-09-27 22:42:00
1:00 AM,53.6,48.2,82,29.98,6.2,SW,15.0,-,N/A,,Partly Cloudy,230,2012-09-27 23:00:00
1:30 AM,53.6,48.2,82,29.98,6.2,SSW,12.7,-,N/A,,Scattered Clouds,210,2012-09-27 23:30:00
2:00 AM,54,47,71,30.00,31,SW,15.7,,,Rain,Light Rain Showers,230,2012-09-28 00:00:00
2:00 AM,53.6,48.2,82,29.98,6.2,SW,16.1,-,N/A,Rain,Light Rain Showers,220,2012-09-28 00:00:00
2:30 AM,53.6,46.4,77,30.01,6.2,SW,15.0,-,N/A,Rain,Light Rain Showers,220,2012-09-28 00:30:00
3:00 AM,51.8,48.2,88,30.01,6.2,SW,13.8,-,N/A,,Mostly Cloudy,220,2012-09-28 01:00:00
3:30 AM,51.8,48.2,88,30.01,6.2,SSW,13.8,-,N/A,,Partly Cloudy,210,2012-09-28 01:30:00
4:00 AM,51.8,48.2,88,30.01,6.2,SSW,17.3,-,N/A,,Partly Cloudy,210,2012-09-28 02:00:00
4:30 AM,51.8,48.2,88,30.01,6.2,SSW,16.1,-,N/A,,Partly Cloudy,210,2012-09-28 02:30:00
5:00 AM,51.8,48.2,88,30.01,6.2,SW,17.3,-,N/A,,Partly Cloudy,220,2012-09-28 03:00:00
5:30 AM,51.8,48.2,88,30.01,-9999.0,SW,18.4,-,N/A,,Clear,230,2012-09-28 03:30:00
6:00 AM,51.8,46.4,82,30.01,-9999.0,WSW,15.0,-,N/A,,Clear,240,2012-09-28 04:00:00
6:30 AM,51.8,46.4,82,30.04,-9999.0,WSW,15.0,-,N/A,,Clear,240,2012-09-28 04:30:00
7:00 AM,51.8,46.4,82,30.04,-9999.0,SW,13.8,-,N/A,,Clear,220,2012-09-28 05:00:00
7:30 AM,51.8,46.4,82,30.06,-9999.0,SW,13.8,-,N/A,,Clear,220,2012-09-28 05:30:00
8:00 AM,52,47,77,30.08,25,WSW,13.4,,,,Partly Cloudy,240,2012-09-28 06:00:00
8:00 AM,51.8,46.4,82,30.06,-9999.0,SW,12.7,-,N/A,,Clear,230,2012-09-28 06:00:00
8:30 AM,51.8,46.4,82,30.06,-9999.0,WSW,15.0,-,N/A,,Clear,240,2012-09-28 06:30:00
9:00 AM,53.6,48.2,82,30.09,-9999.0,SW,15.0,-,N/A,,Clear,230,2012-09-28 07:00:00
9:30 AM,53.6,48.2,82,30.09,-9999.0,SW,11.5,-,N/A,,Clear,220,2012-09-28 07:30:00
10:00 AM,55.4,48.2,77,30.12,-9999.0,WSW,9.2,-,N/A,,Clear,240,2012-09-28 08:00:00
10:30 AM,55.4,48.2,77,30.12,-9999.0,WSW,11.5,-,N/A,,Clear,240,2012-09-28 08:30:00
11:00 AM,55.4,48.2,77,30.12,6.2,WSW,13.8,-,N/A,,Partly Cloudy,240,2012-09-28 09:00:00
11:30 AM,57.2,50.0,77,30.12,6.2,WSW,15.0,-,N/A,,Partly Cloudy,240,2012-09-28 09:30:00
12:00 PM,59.0,48.2,67,30.12,6.2,WSW,15.0,-,N/A,,Scattered Clouds,250,2012-09-28 10:00:00
12:30 PM,60.8,50.0,68,30.12,6.2,WSW,15.0,-,N/A,,Scattered Clouds,250,2012-09-28 10:30:00
1:00 PM,59.0,48.2,67,30.12,6.2,WSW,11.5,-,N/A,,Scattered Clouds,240,2012-09-28 11:00:00
1:30 PM,59.0,48.2,67,30.12,6.2,WSW,9.2,-,N/A,,Scattered Clouds,250,2012-09-28 11:30:00
2:00 PM,60,49,56,30.11,44,WSW,11.2,,,,Partly Cloudy,240,2012-09-28 12:00:00
2:00 PM,59.0,48.2,67,30.12,6.2,WSW,11.5,-,N/A,,Scattered Clouds,240,2012-09-28 12:00:00
2:15 PM,62.6,50.0,63,30.09,6.2,SSW,10.4,-,N/A,,Scattered Clouds,210,2012-09-28 12:15:00
2:30 PM,62.6,50.0,63,30.09,6.2,SSW,8.1,-,N/A,,Scattered Clouds,210,2012-09-28 12:30:00
3:00 PM,62.6,48.2,59,30.09,6.2,SW,9.2,-,N/A,,Scattered Clouds,220,2012-09-28 13:00:00
3:30 PM,60.8,46.4,59,30.09,6.2,SW,10.4,-,N/A,,Scattered Clouds,220,2012-09-28 13:30:00
4:00 PM,60.8,44.6,55,30.09,6.2,SW,10.4,-,N/A,,Scattered Clouds,220,2012-09-28 14:00:00
4:30 PM,60.8,46.4,59,30.09,6.2,SW,10.4,-,N/A,,Partly Cloudy,220,2012-09-28 14:30:00
5:00 PM,60.8,46.4,59,30.09,-9999.0,SSW,8.1,-,N/A,,Clear,200,2012-09-28 15:00:00
5:30 PM,59.0,46.4,63,30.09,-9999.0,SSW,9.2,-,N/A,,Clear,210,2012-09-28 15:30:00
6:00 PM,60.8,46.4,59,30.09,-9999.0,SW,6.9,-,N/A,,Clear,220,2012-09-28 16:00:00
6:30 PM,57.2,46.4,67,30.09,-9999.0,SSW,5.8,-,N/A,,Clear,210,2012-09-28 16:30:00
7:00 PM,55.4,46.4,72,30.09,-9999.0,SSW,5.8,-,N/A,,Clear,200,2012-09-28 17:00:00
7:30 PM,55.4,44.6,67,30.09,-9999.0,South,4.6,-,N/A,,Clear,190,2012-09-28 17:30:00
8:00 PM,53,46,70,30.12,37,South,4.5,,,,Scattered Clouds,170,2012-09-28 18:00:00
8:00 PM,53.6,46.4,77,30.09,-9999.0,South,3.5,-,N/A,,Clear,170,2012-09-28 18:00:00
8:30 PM,53.6,44.6,72,30.09,-9999.0,South,4.6,-,N/A,,Clear,170,2012-09-28 18:30:00
9:00 PM,53.6,44.6,72,30.09,-9999.0,South,5.8,-,N/A,,Clear,180,2012-09-28 19:00:00
9:30 PM,51.8,44.6,76,30.09,-9999.0,SSW,5.8,-,N/A,,Clear,200,2012-09-28 19:30:00
10:00 PM,50.0,44.6,82,30.09,-9999.0,SSW,8.1,-,N/A,,Clear,210,2012-09-28 20:00:00
10:30 PM,50.0,44.6,82,30.09,-9999.0,SSW,8.1,-,N/A,,Clear,210,2012-09-28 20:30:00
11:00 PM,50.0,44.6,82,30.09,-9999.0,SSW,6.9,-,N/A,,Clear,210,2012-09-28 21:00:00
11:30 PM,50.0,46.4,87,30.09,-9999.0,SW,4.6,-,N/A,,Clear,220,2012-09-28 21:30:00